sensor_id;sensor_type;location;lat;lon;timestamp;P1;durP1;ratioP1;P2;durP2;ratioP2
8636;SDS011;4356;49.068;8.658;2023-03-01T00:00:40;8.90;;;6.30;;
8636;SDS011;4356;49.068;8.658;2023-03-01T00:03:06;6.27;;;5.83;;
8636;SDS011;4356;49.068;8.658;2023-03-01T00:05:32;6.43;;;5.83;;
8636;SDS011;4356;49.068;8.658;2023-03-01T00:07:57;6.87;;;6.33;;
8636;SDS011;4356;49.068;8.658;2023-03-01T00:10:23;6.70;;;6.10;;
8636;SDS011;4356;49.068;8.658;2023-03-01T00:12:49;6.03;;;5.53;;
8636;SDS011;4356;49.068;8.658;2023-03-01T00:15:14;6.77;;;6.07;;
8636;SDS011;4356;49.068;8.658;2023-03-01T00:17:40;6.57;;;6.00;;
8636;SDS011;4356;49.068;8.658;2023-03-01T00:20:05;6.33;;;5.83;;
8636;SDS011;4356;49.068;8.658;2023-03-01T00:22:35;6.40;;;5.90;;
8636;SDS011;4356;49.068;8.658;2023-03-01T00:25:02;5.90;;;5.43;;
8636;SDS011;4356;49.068;8.658;2023-03-01T00:27:28;6.23;;;5.73;;
8636;SDS011;4356;49.068;8.658;2023-03-01T00:29:53;6.20;;;5.80;;
8636;SDS011;4356;49.068;8.658;2023-03-01T00:32:19;6.77;;;6.27;;
8636;SDS011;4356;49.068;8.658;2023-03-01T00:34:45;6.30;;;5.80;;
8636;SDS011;4356;49.068;8.658;2023-03-01T00:37:19;6.93;;;6.23;;
8636;SDS011;4356;49.068;8.658;2023-03-01T00:39:49;6.43;;;6.03;;
8636;SDS011;4356;49.068;8.658;2023-03-01T00:42:15;6.17;;;5.77;;
8636;SDS011;4356;49.068;8.658;2023-03-01T00:44:42;6.97;;;6.40;;
8636;SDS011;4356;49.068;8.658;2023-03-01T00:47:07;8.27;;;6.20;;
8636;SDS011;4356;49.068;8.658;2023-03-01T00:49:34;6.80;;;6.13;;
8636;SDS011;4356;49.068;8.658;2023-03-01T00:51:59;6.60;;;6.10;;
8636;SDS011;4356;49.068;8.658;2023-03-01T00:54:25;7.27;;;6.67;;
8636;SDS011;4356;49.068;8.658;2023-03-01T00:56:50;7.00;;;6.40;;
8636;SDS011;4356;49.068;8.658;2023-03-01T00:59:16;7.03;;;6.33;;
8636;SDS011;4356;49.068;8.658;2023-03-01T01:01:41;6.40;;;5.90;;
8636;SDS011;4356;49.068;8.658;2023-03-01T01:04:08;7.10;;;6.60;;
8636;SDS011;4356;49.068;8.658;2023-03-01T01:06:37;6.27;;;5.83;;
8636;SDS011;4356;49.068;8.658;2023-03-01T01:09:09;7.10;;;6.50;;
8636;SDS011;4356;49.068;8.658;2023-03-01T01:11:42;7.63;;;6.50;;
8636;SDS011;4356;49.068;8.658;2023-03-01T01:14:09;6.27;;;5.80;;
8636;SDS011;4356;49.068;8.658;2023-03-01T01:16:35;7.07;;;6.47;;
8636;SDS011;4356;49.068;8.658;2023-03-01T01:19:00;6.50;;;6.00;;
8636;SDS011;4356;49.068;8.658;2023-03-01T01:21:26;6.80;;;6.20;;
8636;SDS011;4356;49.068;8.658;2023-03-01T01:23:52;6.30;;;5.83;;
8636;SDS011;4356;49.068;8.658;2023-03-01T01:26:19;6.70;;;6.10;;
8636;SDS011;4356;49.068;8.658;2023-03-01T01:28:47;6.60;;;6.10;;
8636;SDS011;4356;49.068;8.658;2023-03-01T01:31:13;6.77;;;6.17;;
8636;SDS011;4356;49.068;8.658;2023-03-01T01:33:39;6.60;;;6.13;;
8636;SDS011;4356;49.068;8.658;2023-03-01T01:36:05;6.60;;;6.03;;
8636;SDS011;4356;49.068;8.658;2023-03-01T01:38:32;7.57;;;6.47;;
8636;SDS011;4356;49.068;8.658;2023-03-01T01:40:58;7.67;;;6.73;;
8636;SDS011;4356;49.068;8.658;2023-03-01T01:43:26;6.93;;;6.43;;
8636;SDS011;4356;49.068;8.658;2023-03-01T01:45:59;7.00;;;6.40;;
8636;SDS011;4356;49.068;8.658;2023-03-01T01:48:32;7.30;;;6.60;;
8636;SDS011;4356;49.068;8.658;2023-03-01T01:51:11;6.83;;;6.33;;
8636;SDS011;4356;49.068;8.658;2023-03-01T01:53:40;7.73;;;6.70;;
8636;SDS011;4356;49.068;8.658;2023-03-01T01:56:08;6.63;;;6.10;;
8636;SDS011;4356;49.068;8.658;2023-03-01T01:58:37;7.40;;;6.70;;
8636;SDS011;4356;49.068;8.658;2023-03-01T02:01:06;6.97;;;6.30;;
8636;SDS011;4356;49.068;8.658;2023-03-01T02:03:33;7.73;;;7.03;;
8636;SDS011;4356;49.068;8.658;2023-03-01T02:06:11;7.47;;;6.87;;
8636;SDS011;4356;49.068;8.658;2023-03-01T02:08:46;6.70;;;6.20;;
8636;SDS011;4356;49.068;8.658;2023-03-01T02:11:13;6.90;;;6.40;;
8636;SDS011;4356;49.068;8.658;2023-03-01T02:13:40;7.03;;;6.43;;
8636;SDS011;4356;49.068;8.658;2023-03-01T02:16:10;6.77;;;6.27;;
8636;SDS011;4356;49.068;8.658;2023-03-01T02:18:39;7.47;;;6.87;;
8636;SDS011;4356;49.068;8.658;2023-03-01T02:23:47;7.10;;;6.60;;
8636;SDS011;4356;49.068;8.658;2023-03-01T02:26:20;6.73;;;6.10;;
8636;SDS011;4356;49.068;8.658;2023-03-01T02:28:54;6.60;;;6.03;;
8636;SDS011;4356;49.068;8.658;2023-03-01T02:31:20;7.47;;;6.83;;
8636;SDS011;4356;49.068;8.658;2023-03-01T02:34:05;7.10;;;6.50;;
8636;SDS011;4356;49.068;8.658;2023-03-01T02:36:55;6.83;;;6.33;;
8636;SDS011;4356;49.068;8.658;2023-03-01T02:39:28;6.63;;;6.00;;
8636;SDS011;4356;49.068;8.658;2023-03-01T02:41:58;7.60;;;7.00;;
8636;SDS011;4356;49.068;8.658;2023-03-01T02:44:25;7.67;;;7.07;;
8636;SDS011;4356;49.068;8.658;2023-03-01T02:46:52;7.00;;;6.47;;
8636;SDS011;4356;49.068;8.658;2023-03-01T02:49:21;7.73;;;6.93;;
8636;SDS011;4356;49.068;8.658;2023-03-01T02:52:01;7.30;;;6.63;;
8636;SDS011;4356;49.068;8.658;2023-03-01T02:54:41;7.40;;;6.70;;
8636;SDS011;4356;49.068;8.658;2023-03-01T02:57:13;7.57;;;6.97;;
8636;SDS011;4356;49.068;8.658;2023-03-01T02:59:40;7.13;;;6.63;;
8636;SDS011;4356;49.068;8.658;2023-03-01T03:02:16;8.37;;;7.67;;
8636;SDS011;4356;49.068;8.658;2023-03-01T03:04:46;7.57;;;6.97;;
8636;SDS011;4356;49.068;8.658;2023-03-01T03:07:12;7.57;;;6.93;;
8636;SDS011;4356;49.068;8.658;2023-03-01T03:09:37;7.80;;;7.10;;
8636;SDS011;4356;49.068;8.658;2023-03-01T03:12:03;7.53;;;6.83;;
8636;SDS011;4356;49.068;8.658;2023-03-01T03:14:29;7.60;;;7.10;;
8636;SDS011;4356;49.068;8.658;2023-03-01T03:16:54;7.37;;;6.77;;
8636;SDS011;4356;49.068;8.658;2023-03-01T03:19:20;7.83;;;7.13;;
8636;SDS011;4356;49.068;8.658;2023-03-01T03:21:46;7.50;;;6.80;;
8636;SDS011;4356;49.068;8.658;2023-03-01T03:24:11;7.23;;;6.67;;
8636;SDS011;4356;49.068;8.658;2023-03-01T03:26:37;7.80;;;7.10;;
8636;SDS011;4356;49.068;8.658;2023-03-01T03:29:03;7.70;;;7.10;;
8636;SDS011;4356;49.068;8.658;2023-03-01T03:31:28;7.97;;;7.17;;
8636;SDS011;4356;49.068;8.658;2023-03-01T03:33:54;7.33;;;6.63;;
8636;SDS011;4356;49.068;8.658;2023-03-01T03:36:22;7.50;;;6.80;;
8636;SDS011;4356;49.068;8.658;2023-03-01T03:38:49;7.90;;;7.30;;
8636;SDS011;4356;49.068;8.658;2023-03-01T03:41:15;7.23;;;6.63;;
8636;SDS011;4356;49.068;8.658;2023-03-01T03:43:41;7.60;;;6.93;;
8636;SDS011;4356;49.068;8.658;2023-03-01T03:46:09;8.03;;;7.43;;
8636;SDS011;4356;49.068;8.658;2023-03-01T03:48:37;8.00;;;7.43;;
8636;SDS011;4356;49.068;8.658;2023-03-01T03:51:04;7.53;;;6.87;;
8636;SDS011;4356;49.068;8.658;2023-03-01T03:53:31;8.10;;;7.40;;
8636;SDS011;4356;49.068;8.658;2023-03-01T03:55:57;7.70;;;7.20;;
8636;SDS011;4356;49.068;8.658;2023-03-01T03:58:23;8.53;;;7.83;;
8636;SDS011;4356;49.068;8.658;2023-03-01T04:00:54;8.20;;;7.60;;
8636;SDS011;4356;49.068;8.658;2023-03-01T04:03:21;7.80;;;7.20;;
8636;SDS011;4356;49.068;8.658;2023-03-01T04:05:49;7.73;;;7.13;;
8636;SDS011;4356;49.068;8.658;2023-03-01T04:08:21;8.30;;;7.60;;
8636;SDS011;4356;49.068;8.658;2023-03-01T04:10:49;8.23;;;7.50;;
8636;SDS011;4356;49.068;8.658;2023-03-01T04:13:17;8.33;;;7.60;;
8636;SDS011;4356;49.068;8.658;2023-03-01T04:15:50;7.80;;;7.20;;
8636;SDS011;4356;49.068;8.658;2023-03-01T04:18:16;7.83;;;7.13;;
8636;SDS011;4356;49.068;8.658;2023-03-01T04:20:44;8.40;;;7.60;;
8636;SDS011;4356;49.068;8.658;2023-03-01T04:23:13;8.83;;;8.00;;
8636;SDS011;4356;49.068;8.658;2023-03-01T04:25:48;7.93;;;7.30;;
8636;SDS011;4356;49.068;8.658;2023-03-01T04:28:24;7.83;;;7.27;;
8636;SDS011;4356;49.068;8.658;2023-03-01T04:30:50;7.50;;;6.87;;
8636;SDS011;4356;49.068;8.658;2023-03-01T04:33:20;8.40;;;7.60;;
8636;SDS011;4356;49.068;8.658;2023-03-01T04:35:46;9.00;;;8.23;;
8636;SDS011;4356;49.068;8.658;2023-03-01T04:38:14;7.87;;;7.20;;
8636;SDS011;4356;49.068;8.658;2023-03-01T04:40:40;8.60;;;7.93;;
8636;SDS011;4356;49.068;8.658;2023-03-01T04:43:08;7.53;;;6.87;;
8636;SDS011;4356;49.068;8.658;2023-03-01T04:45:35;7.97;;;7.30;;
8636;SDS011;4356;49.068;8.658;2023-03-01T04:48:01;8.77;;;7.97;;
8636;SDS011;4356;49.068;8.658;2023-03-01T04:50:27;8.33;;;7.63;;
8636;SDS011;4356;49.068;8.658;2023-03-01T04:52:53;8.47;;;7.67;;
8636;SDS011;4356;49.068;8.658;2023-03-01T04:55:19;8.77;;;7.87;;
8636;SDS011;4356;49.068;8.658;2023-03-01T04:57:45;8.77;;;7.93;;
8636;SDS011;4356;49.068;8.658;2023-03-01T05:00:11;8.10;;;7.40;;
8636;SDS011;4356;49.068;8.658;2023-03-01T05:02:55;8.63;;;7.93;;
8636;SDS011;4356;49.068;8.658;2023-03-01T05:05:24;8.50;;;7.70;;
8636;SDS011;4356;49.068;8.658;2023-03-01T05:07:58;8.63;;;7.83;;
8636;SDS011;4356;49.068;8.658;2023-03-01T05:10:27;9.40;;;8.50;;
8636;SDS011;4356;49.068;8.658;2023-03-01T05:12:57;9.10;;;8.27;;
8636;SDS011;4356;49.068;8.658;2023-03-01T05:15:28;8.57;;;7.83;;
8636;SDS011;4356;49.068;8.658;2023-03-01T05:17:55;9.07;;;8.27;;
8636;SDS011;4356;49.068;8.658;2023-03-01T05:20:23;8.43;;;7.73;;
8636;SDS011;4356;49.068;8.658;2023-03-01T05:22:54;8.87;;;8.03;;
8636;SDS011;4356;49.068;8.658;2023-03-01T05:25:21;9.27;;;8.47;;
8636;SDS011;4356;49.068;8.658;2023-03-01T05:27:47;12.03;;;9.03;;
8636;SDS011;4356;49.068;8.658;2023-03-01T05:30:13;9.30;;;8.40;;
8636;SDS011;4356;49.068;8.658;2023-03-01T05:32:43;11.57;;;9.13;;
8636;SDS011;4356;49.068;8.658;2023-03-01T05:35:10;9.67;;;8.60;;
8636;SDS011;4356;49.068;8.658;2023-03-01T05:37:40;10.17;;;8.80;;
8636;SDS011;4356;49.068;8.658;2023-03-01T05:40:11;9.83;;;8.63;;
8636;SDS011;4356;49.068;8.658;2023-03-01T05:42:44;9.60;;;8.60;;
8636;SDS011;4356;49.068;8.658;2023-03-01T05:45:20;9.00;;;8.20;;
8636;SDS011;4356;49.068;8.658;2023-03-01T05:47:47;9.03;;;8.23;;
8636;SDS011;4356;49.068;8.658;2023-03-01T05:50:21;9.23;;;8.33;;
8636;SDS011;4356;49.068;8.658;2023-03-01T05:53:00;11.37;;;8.80;;
8636;SDS011;4356;49.068;8.658;2023-03-01T05:55:33;15.63;;;10.47;;
8636;SDS011;4356;49.068;8.658;2023-03-01T05:58:00;11.60;;;9.80;;
8636;SDS011;4356;49.068;8.658;2023-03-01T06:00:28;10.80;;;9.70;;
8636;SDS011;4356;49.068;8.658;2023-03-01T06:02:55;14.03;;;10.43;;
8636;SDS011;4356;49.068;8.658;2023-03-01T06:05:21;10.27;;;9.17;;
8636;SDS011;4356;49.068;8.658;2023-03-01T06:07:48;9.07;;;8.20;;
8636;SDS011;4356;49.068;8.658;2023-03-01T06:10:15;9.60;;;8.67;;
8636;SDS011;4356;49.068;8.658;2023-03-01T06:12:44;9.50;;;8.70;;
8636;SDS011;4356;49.068;8.658;2023-03-01T06:15:13;8.90;;;8.10;;
8636;SDS011;4356;49.068;8.658;2023-03-01T06:17:44;9.43;;;8.53;;
8636;SDS011;4356;49.068;8.658;2023-03-01T06:20:21;9.23;;;8.43;;
8636;SDS011;4356;49.068;8.658;2023-03-01T06:22:48;9.53;;;8.63;;
8636;SDS011;4356;49.068;8.658;2023-03-01T06:25:15;8.47;;;7.77;;
8636;SDS011;4356;49.068;8.658;2023-03-01T06:27:43;8.30;;;7.60;;
8636;SDS011;4356;49.068;8.658;2023-03-01T06:30:10;9.40;;;8.63;;
8636;SDS011;4356;49.068;8.658;2023-03-01T06:32:37;8.87;;;8.17;;
8636;SDS011;4356;49.068;8.658;2023-03-01T06:35:07;9.77;;;8.77;;
8636;SDS011;4356;49.068;8.658;2023-03-01T06:37:33;9.77;;;8.70;;
8636;SDS011;4356;49.068;8.658;2023-03-01T06:40:00;9.37;;;8.60;;
8636;SDS011;4356;49.068;8.658;2023-03-01T06:42:32;9.40;;;8.50;;
8636;SDS011;4356;49.068;8.658;2023-03-01T06:44:57;9.30;;;8.37;;
8636;SDS011;4356;49.068;8.658;2023-03-01T06:47:24;9.10;;;8.30;;
8636;SDS011;4356;49.068;8.658;2023-03-01T06:49:53;8.90;;;8.30;;
8636;SDS011;4356;49.068;8.658;2023-03-01T06:52:20;9.07;;;8.10;;
8636;SDS011;4356;49.068;8.658;2023-03-01T06:54:47;9.27;;;8.47;;
8636;SDS011;4356;49.068;8.658;2023-03-01T06:57:13;8.87;;;8.07;;
8636;SDS011;4356;49.068;8.658;2023-03-01T06:59:38;10.77;;;9.77;;
8636;SDS011;4356;49.068;8.658;2023-03-01T07:02:04;11.63;;;8.83;;
8636;SDS011;4356;49.068;8.658;2023-03-01T07:04:29;9.30;;;8.27;;
8636;SDS011;4356;49.068;8.658;2023-03-01T07:06:55;9.33;;;8.43;;
8636;SDS011;4356;49.068;8.658;2023-03-01T07:09:22;10.10;;;9.20;;
8636;SDS011;4356;49.068;8.658;2023-03-01T07:11:48;9.77;;;8.83;;
8636;SDS011;4356;49.068;8.658;2023-03-01T07:14:14;9.33;;;8.53;;
8636;SDS011;4356;49.068;8.658;2023-03-01T07:16:40;10.27;;;9.33;;
8636;SDS011;4356;49.068;8.658;2023-03-01T07:19:06;9.73;;;8.93;;
8636;SDS011;4356;49.068;8.658;2023-03-01T07:21:31;10.17;;;9.37;;
8636;SDS011;4356;49.068;8.658;2023-03-01T07:23:57;10.47;;;9.50;;
8636;SDS011;4356;49.068;8.658;2023-03-01T07:26:22;10.07;;;9.17;;
8636;SDS011;4356;49.068;8.658;2023-03-01T07:28:48;11.60;;;9.03;;
8636;SDS011;4356;49.068;8.658;2023-03-01T07:31:13;11.87;;;10.77;;
8636;SDS011;4356;49.068;8.658;2023-03-01T07:33:39;11.03;;;9.93;;
8636;SDS011;4356;49.068;8.658;2023-03-01T07:36:05;9.77;;;8.97;;
8636;SDS011;4356;49.068;8.658;2023-03-01T07:38:31;11.10;;;10.17;;
8636;SDS011;4356;49.068;8.658;2023-03-01T07:40:59;10.40;;;9.50;;
8636;SDS011;4356;49.068;8.658;2023-03-01T07:43:27;10.87;;;9.97;;
8636;SDS011;4356;49.068;8.658;2023-03-01T07:45:54;9.73;;;8.93;;
8636;SDS011;4356;49.068;8.658;2023-03-01T07:48:19;10.83;;;9.93;;
8636;SDS011;4356;49.068;8.658;2023-03-01T07:50:45;11.20;;;10.00;;
8636;SDS011;4356;49.068;8.658;2023-03-01T07:53:11;10.13;;;9.17;;
8636;SDS011;4356;49.068;8.658;2023-03-01T07:55:43;10.70;;;9.67;;
8636;SDS011;4356;49.068;8.658;2023-03-01T07:58:08;10.87;;;9.97;;
8636;SDS011;4356;49.068;8.658;2023-03-01T08:00:34;10.83;;;9.73;;
8636;SDS011;4356;49.068;8.658;2023-03-01T08:03:00;10.07;;;9.17;;
8636;SDS011;4356;49.068;8.658;2023-03-01T08:05:26;10.60;;;9.60;;
8636;SDS011;4356;49.068;8.658;2023-03-01T08:07:52;11.03;;;10.13;;
8636;SDS011;4356;49.068;8.658;2023-03-01T08:10:19;10.27;;;9.37;;
8636;SDS011;4356;49.068;8.658;2023-03-01T08:12:45;10.73;;;9.80;;
8636;SDS011;4356;49.068;8.658;2023-03-01T08:15:11;11.27;;;10.13;;
8636;SDS011;4356;49.068;8.658;2023-03-01T08:17:39;11.27;;;10.27;;
8636;SDS011;4356;49.068;8.658;2023-03-01T08:20:05;11.43;;;10.40;;
8636;SDS011;4356;49.068;8.658;2023-03-01T08:22:34;11.27;;;10.27;;
8636;SDS011;4356;49.068;8.658;2023-03-01T08:25:00;10.70;;;9.63;;
8636;SDS011;4356;49.068;8.658;2023-03-01T08:27:26;10.50;;;9.07;;
8636;SDS011;4356;49.068;8.658;2023-03-01T08:29:51;11.13;;;10.03;;
8636;SDS011;4356;49.068;8.658;2023-03-01T08:32:17;12.37;;;11.20;;
8636;SDS011;4356;49.068;8.658;2023-03-01T08:34:45;11.30;;;10.20;;
8636;SDS011;4356;49.068;8.658;2023-03-01T08:37:11;10.63;;;9.73;;
8636;SDS011;4356;49.068;8.658;2023-03-01T08:39:37;10.77;;;9.77;;
8636;SDS011;4356;49.068;8.658;2023-03-01T08:42:03;10.47;;;9.57;;
8636;SDS011;4356;49.068;8.658;2023-03-01T08:44:28;10.23;;;9.33;;
8636;SDS011;4356;49.068;8.658;2023-03-01T08:46:54;10.80;;;9.67;;
8636;SDS011;4356;49.068;8.658;2023-03-01T08:49:23;10.43;;;9.47;;
8636;SDS011;4356;49.068;8.658;2023-03-01T08:51:49;10.97;;;9.87;;
8636;SDS011;4356;49.068;8.658;2023-03-01T08:54:19;11.03;;;9.87;;
8636;SDS011;4356;49.068;8.658;2023-03-01T08:56:46;12.20;;;11.00;;
8636;SDS011;4356;49.068;8.658;2023-03-01T08:59:12;10.07;;;8.93;;
8636;SDS011;4356;49.068;8.658;2023-03-01T09:01:44;10.23;;;9.27;;
8636;SDS011;4356;49.068;8.658;2023-03-01T09:04:10;10.97;;;10.07;;
8636;SDS011;4356;49.068;8.658;2023-03-01T09:06:36;10.33;;;9.33;;
8636;SDS011;4356;49.068;8.658;2023-03-01T09:09:03;10.87;;;9.53;;
8636;SDS011;4356;49.068;8.658;2023-03-01T09:11:30;11.43;;;10.33;;
8636;SDS011;4356;49.068;8.658;2023-03-01T09:13:58;11.93;;;10.73;;
8636;SDS011;4356;49.068;8.658;2023-03-01T09:16:24;10.97;;;9.67;;
8636;SDS011;4356;49.068;8.658;2023-03-01T09:18:53;10.80;;;9.93;;
8636;SDS011;4356;49.068;8.658;2023-03-01T09:21:20;10.87;;;10.03;;
8636;SDS011;4356;49.068;8.658;2023-03-01T09:23:52;11.17;;;10.20;;
8636;SDS011;4356;49.068;8.658;2023-03-01T09:26:21;11.47;;;10.17;;
8636;SDS011;4356;49.068;8.658;2023-03-01T09:28:52;11.70;;;10.60;;
8636;SDS011;4356;49.068;8.658;2023-03-01T09:31:19;11.37;;;10.33;;
8636;SDS011;4356;49.068;8.658;2023-03-01T09:33:47;12.43;;;11.13;;
8636;SDS011;4356;49.068;8.658;2023-03-01T09:36:15;12.47;;;10.63;;
8636;SDS011;4356;49.068;8.658;2023-03-01T09:38:43;11.37;;;10.37;;
8636;SDS011;4356;49.068;8.658;2023-03-01T09:43:57;11.50;;;10.50;;
8636;SDS011;4356;49.068;8.658;2023-03-01T09:46:29;12.67;;;10.07;;
8636;SDS011;4356;49.068;8.658;2023-03-01T09:49:02;11.73;;;10.53;;
8636;SDS011;4356;49.068;8.658;2023-03-01T09:51:35;11.13;;;9.53;;
8636;SDS011;4356;49.068;8.658;2023-03-01T09:54:02;11.43;;;10.43;;
8636;SDS011;4356;49.068;8.658;2023-03-01T09:57:17;11.37;;;10.27;;
8636;SDS011;4356;49.068;8.658;2023-03-01T10:05:59;10.93;;;9.93;;
8636;SDS011;4356;49.068;8.658;2023-03-01T10:11:05;16.20;;;10.03;;
8636;SDS011;4356;49.068;8.658;2023-03-01T10:13:50;11.90;;;10.90;;
8636;SDS011;4356;49.068;8.658;2023-03-01T10:19:05;11.53;;;10.50;;
8636;SDS011;4356;49.068;8.658;2023-03-01T10:21:41;11.93;;;10.93;;
8636;SDS011;4356;49.068;8.658;2023-03-01T10:24:11;11.70;;;10.80;;
8636;SDS011;4356;49.068;8.658;2023-03-01T10:26:54;12.47;;;11.30;;
8636;SDS011;4356;49.068;8.658;2023-03-01T10:32:21;11.03;;;10.17;;
8636;SDS011;4356;49.068;8.658;2023-03-01T10:34:47;11.77;;;10.53;;
8636;SDS011;4356;49.068;8.658;2023-03-01T10:37:13;11.77;;;10.67;;
8636;SDS011;4356;49.068;8.658;2023-03-01T10:42:29;11.70;;;10.60;;
8636;SDS011;4356;49.068;8.658;2023-03-01T10:44:56;11.73;;;10.67;;
8636;SDS011;4356;49.068;8.658;2023-03-01T10:47:27;11.90;;;10.77;;
8636;SDS011;4356;49.068;8.658;2023-03-01T10:50:38;11.20;;;10.33;;
8636;SDS011;4356;49.068;8.658;2023-03-01T10:52:59;12.33;;;11.13;;
8636;SDS011;4356;49.068;8.658;2023-03-01T10:55:35;12.47;;;11.37;;
8636;SDS011;4356;49.068;8.658;2023-03-01T10:58:07;11.07;;;10.17;;
8636;SDS011;4356;49.068;8.658;2023-03-01T11:01:40;11.83;;;10.70;;
8636;SDS011;4356;49.068;8.658;2023-03-01T11:04:27;11.33;;;10.23;;
8636;SDS011;4356;49.068;8.658;2023-03-01T11:06:57;11.67;;;10.47;;
8636;SDS011;4356;49.068;8.658;2023-03-01T11:09:26;13.60;;;10.77;;
8636;SDS011;4356;49.068;8.658;2023-03-01T11:12:02;11.97;;;10.87;;
8636;SDS011;4356;49.068;8.658;2023-03-01T11:14:37;11.40;;;10.30;;
8636;SDS011;4356;49.068;8.658;2023-03-01T11:17:24;11.87;;;10.87;;
8636;SDS011;4356;49.068;8.658;2023-03-01T11:22:35;11.77;;;10.67;;
8636;SDS011;4356;49.068;8.658;2023-03-01T11:25:02;11.17;;;10.30;;
8636;SDS011;4356;49.068;8.658;2023-03-01T11:27:30;11.67;;;10.60;;
8636;SDS011;4356;49.068;8.658;2023-03-01T11:35:41;11.67;;;10.67;;
8636;SDS011;4356;49.068;8.658;2023-03-01T11:38:22;11.20;;;10.30;;
8636;SDS011;4356;49.068;8.658;2023-03-01T11:41:00;11.70;;;10.67;;
8636;SDS011;4356;49.068;8.658;2023-03-01T11:49:02;11.63;;;10.67;;
8636;SDS011;4356;49.068;8.658;2023-03-01T12:20:00;11.90;;;10.80;;
8636;SDS011;4356;49.068;8.658;2023-03-01T12:27:56;11.40;;;10.33;;
8636;SDS011;4356;49.068;8.658;2023-03-01T12:41:06;10.60;;;9.60;;
8636;SDS011;4356;49.068;8.658;2023-03-01T12:46:34;11.60;;;10.50;;
8636;SDS011;4356;49.068;8.658;2023-03-01T12:51:54;11.73;;;10.73;;
8636;SDS011;4356;49.068;8.658;2023-03-01T12:54:28;12.17;;;11.17;;
8636;SDS011;4356;49.068;8.658;2023-03-01T12:56:56;11.30;;;10.30;;
8636;SDS011;4356;49.068;8.658;2023-03-01T13:00:23;12.03;;;11.03;;
8636;SDS011;4356;49.068;8.658;2023-03-01T13:02:31;12.40;;;11.20;;
8636;SDS011;4356;49.068;8.658;2023-03-01T13:08:01;11.47;;;10.47;;
8636;SDS011;4356;49.068;8.658;2023-03-01T13:10:38;11.47;;;10.47;;
8636;SDS011;4356;49.068;8.658;2023-03-01T13:15:47;11.20;;;10.20;;
8636;SDS011;4356;49.068;8.658;2023-03-01T13:20:51;11.47;;;10.27;;
8636;SDS011;4356;49.068;8.658;2023-03-01T13:33:49;10.77;;;9.77;;
8636;SDS011;4356;49.068;8.658;2023-03-01T13:44:13;11.53;;;10.53;;
8636;SDS011;4356;49.068;8.658;2023-03-01T13:46:45;10.00;;;9.10;;
8636;SDS011;4356;49.068;8.658;2023-03-01T13:49:14;11.00;;;10.00;;
8636;SDS011;4356;49.068;8.658;2023-03-01T13:51:54;11.57;;;10.57;;
8636;SDS011;4356;49.068;8.658;2023-03-01T13:54:29;11.30;;;10.40;;
8636;SDS011;4356;49.068;8.658;2023-03-01T13:57:00;11.07;;;10.17;;
8636;SDS011;4356;49.068;8.658;2023-03-01T13:59:27;11.70;;;10.50;;
8636;SDS011;4356;49.068;8.658;2023-03-01T14:01:56;5.13;;;4.70;;
8636;SDS011;4356;49.068;8.658;2023-03-01T14:04:29;7.97;;;7.20;;
8636;SDS011;4356;49.068;8.658;2023-03-01T14:07:16;10.77;;;9.87;;
8636;SDS011;4356;49.068;8.658;2023-03-01T14:09:44;6.77;;;6.13;;
8636;SDS011;4356;49.068;8.658;2023-03-01T14:17:49;7.77;;;7.03;;
8636;SDS011;4356;49.068;8.658;2023-03-01T14:20:17;11.60;;;10.40;;
8636;SDS011;4356;49.068;8.658;2023-03-01T14:22:52;11.77;;;10.57;;
8636;SDS011;4356;49.068;8.658;2023-03-01T14:27:59;11.43;;;10.43;;
8636;SDS011;4356;49.068;8.658;2023-03-01T14:30:27;11.63;;;10.50;;
8636;SDS011;4356;49.068;8.658;2023-03-01T14:32:59;13.20;;;11.07;;
8636;SDS011;4356;49.068;8.658;2023-03-01T14:35:27;11.20;;;10.10;;
8636;SDS011;4356;49.068;8.658;2023-03-01T14:37:55;10.77;;;9.87;;
8636;SDS011;4356;49.068;8.658;2023-03-01T14:40:23;11.10;;;10.10;;
8636;SDS011;4356;49.068;8.658;2023-03-01T14:43:11;11.30;;;10.20;;
8636;SDS011;4356;49.068;8.658;2023-03-01T14:45:42;10.77;;;9.70;;
8636;SDS011;4356;49.068;8.658;2023-03-01T14:48:13;10.97;;;9.87;;
8636;SDS011;4356;49.068;8.658;2023-03-01T14:50:42;10.20;;;9.30;;
8636;SDS011;4356;49.068;8.658;2023-03-01T14:53:23;11.20;;;10.20;;
8636;SDS011;4356;49.068;8.658;2023-03-01T14:55:52;11.60;;;10.40;;
8636;SDS011;4356;49.068;8.658;2023-03-01T14:58:21;10.47;;;9.67;;
8636;SDS011;4356;49.068;8.658;2023-03-01T15:00:51;11.27;;;10.17;;
8636;SDS011;4356;49.068;8.658;2023-03-01T15:03:40;10.53;;;9.63;;
8636;SDS011;4356;49.068;8.658;2023-03-01T15:06:09;10.53;;;9.63;;
8636;SDS011;4356;49.068;8.658;2023-03-01T15:08:37;10.23;;;9.43;;
8636;SDS011;4356;49.068;8.658;2023-03-01T15:13:39;11.13;;;10.10;;
8636;SDS011;4356;49.068;8.658;2023-03-01T15:18:32;11.60;;;10.60;;
8636;SDS011;4356;49.068;8.658;2023-03-01T15:21:08;10.63;;;9.73;;
8636;SDS011;4356;49.068;8.658;2023-03-01T15:24:00;11.27;;;10.30;;
8636;SDS011;4356;49.068;8.658;2023-03-01T15:26:45;12.07;;;10.17;;
8636;SDS011;4356;49.068;8.658;2023-03-01T15:29:31;10.53;;;9.67;;
8636;SDS011;4356;49.068;8.658;2023-03-01T15:32:03;11.43;;;10.47;;
8636;SDS011;4356;49.068;8.658;2023-03-01T15:34:33;11.53;;;9.93;;
8636;SDS011;4356;49.068;8.658;2023-03-01T15:37:02;10.93;;;10.03;;
8636;SDS011;4356;49.068;8.658;2023-03-01T15:39:32;10.87;;;9.77;;
8636;SDS011;4356;49.068;8.658;2023-03-01T15:42:08;11.63;;;10.33;;
8636;SDS011;4356;49.068;8.658;2023-03-01T15:44:37;10.47;;;9.60;;
8636;SDS011;4356;49.068;8.658;2023-03-01T15:49:51;12.50;;;9.80;;
8636;SDS011;4356;49.068;8.658;2023-03-01T15:52:26;10.83;;;9.73;;
8636;SDS011;4356;49.068;8.658;2023-03-01T15:54:59;11.80;;;10.77;;
8636;SDS011;4356;49.068;8.658;2023-03-01T15:57:27;10.80;;;9.87;;
8636;SDS011;4356;49.068;8.658;2023-03-01T15:59:54;10.83;;;9.80;;
8636;SDS011;4356;49.068;8.658;2023-03-01T16:02:21;10.00;;;9.20;;
8636;SDS011;4356;49.068;8.658;2023-03-01T16:04:48;12.47;;;9.97;;
8636;SDS011;4356;49.068;8.658;2023-03-01T16:07:14;10.27;;;9.47;;
8636;SDS011;4356;49.068;8.658;2023-03-01T16:09:40;11.40;;;10.33;;
8636;SDS011;4356;49.068;8.658;2023-03-01T16:12:08;10.90;;;9.80;;
8636;SDS011;4356;49.068;8.658;2023-03-01T16:14:39;10.80;;;9.90;;
8636;SDS011;4356;49.068;8.658;2023-03-01T16:17:04;12.43;;;9.97;;
8636;SDS011;4356;49.068;8.658;2023-03-01T16:19:30;11.10;;;10.00;;
8636;SDS011;4356;49.068;8.658;2023-03-01T16:21:56;11.37;;;10.37;;
8636;SDS011;4356;49.068;8.658;2023-03-01T16:24:21;18.53;;;10.67;;
8636;SDS011;4356;49.068;8.658;2023-03-01T16:26:47;10.90;;;9.80;;
8636;SDS011;4356;49.068;8.658;2023-03-01T16:29:12;15.20;;;11.87;;
8636;SDS011;4356;49.068;8.658;2023-03-01T16:31:38;10.47;;;9.57;;
8636;SDS011;4356;49.068;8.658;2023-03-01T16:34:03;11.40;;;10.40;;
8636;SDS011;4356;49.068;8.658;2023-03-01T16:36:29;11.43;;;10.33;;
8636;SDS011;4356;49.068;8.658;2023-03-01T16:38:55;10.73;;;9.63;;
8636;SDS011;4356;49.068;8.658;2023-03-01T16:41:25;10.80;;;9.80;;
8636;SDS011;4356;49.068;8.658;2023-03-01T16:43:52;11.03;;;9.90;;
8636;SDS011;4356;49.068;8.658;2023-03-01T16:46:19;14.37;;;9.80;;
8636;SDS011;4356;49.068;8.658;2023-03-01T16:48:47;12.13;;;10.20;;
8636;SDS011;4356;49.068;8.658;2023-03-01T16:51:13;11.87;;;10.63;;
8636;SDS011;4356;49.068;8.658;2023-03-01T16:53:39;10.23;;;9.23;;
8636;SDS011;4356;49.068;8.658;2023-03-01T16:56:06;11.27;;;10.30;;
8636;SDS011;4356;49.068;8.658;2023-03-01T16:58:34;11.00;;;9.77;;
8636;SDS011;4356;49.068;8.658;2023-03-01T17:01:04;11.17;;;10.20;;
8636;SDS011;4356;49.068;8.658;2023-03-01T17:03:31;11.00;;;9.90;;
8636;SDS011;4356;49.068;8.658;2023-03-01T17:06:00;10.27;;;9.30;;
8636;SDS011;4356;49.068;8.658;2023-03-01T17:08:27;11.47;;;9.97;;
8636;SDS011;4356;49.068;8.658;2023-03-01T17:10:52;10.63;;;9.63;;
8636;SDS011;4356;49.068;8.658;2023-03-01T17:13:18;10.80;;;9.33;;
8636;SDS011;4356;49.068;8.658;2023-03-01T17:15:43;11.93;;;10.87;;
8636;SDS011;4356;49.068;8.658;2023-03-01T17:18:09;11.90;;;10.70;;
8636;SDS011;4356;49.068;8.658;2023-03-01T17:20:35;10.50;;;9.70;;
8636;SDS011;4356;49.068;8.658;2023-03-01T17:23:01;11.10;;;9.93;;
8636;SDS011;4356;49.068;8.658;2023-03-01T17:25:28;11.03;;;10.03;;